sensor_id;sensor_type;location;lat;lon;timestamp;pressure;altitude;pressure_sealevel;temperature;humidity
80927;BME280;70385;44.538;18.532;2023-11-21T00:01:49;99005.69;;;5.01;100.00
80927;BME280;70385;44.538;18.532;2023-11-21T00:04:19;99006.50;;;5.03;100.00
80927;BME280;70385;44.538;18.532;2023-11-21T00:06:52;99005.84;;;4.95;100.00
80927;BME280;70385;44.538;18.532;2023-11-21T00:09:22;99003.25;;;4.95;100.00
80927;BME280;70385;44.538;18.532;2023-11-21T00:12:00;98999.81;;;4.95;100.00
80927;BME280;70385;44.538;18.532;2023-11-21T00:14:27;99005.91;;;4.94;100.00
80927;BME280;70385;44.538;18.532;2023-11-21T00:16:56;99003.34;;;4.92;100.00
80927;BME280;70385;44.538;18.532;2023-11-21T00:19:28;99003.25;;;4.95;100.00
80927;BME280;70385;44.538;18.532;2023-11-21T00:21:58;99004.25;;;4.91;100.00
80927;BME280;70385;44.538;18.532;2023-11-21T00:24:24;99009.34;;;4.94;100.00
80927;BME280;70385;44.538;18.532;2023-11-21T00:26:58;98986.28;;;4.85;100.00
80927;BME280;70385;44.538;18.532;2023-11-21T00:29:25;98987.16;;;4.84;100.00
80927;BME280;70385;44.538;18.532;2023-11-21T00:31:51;99001.03;;;4.81;100.00
80927;BME280;70385;44.538;18.532;2023-11-21T00:34:21;98990.00;;;4.75;100.00
80927;BME280;70385;44.538;18.532;2023-11-21T00:36:49;98991.19;;;4.63;100.00
80927;BME280;70385;44.538;18.532;2023-11-21T00:39:24;98994.88;;;4.54;100.00
80927;BME280;70385;44.538;18.532;2023-11-21T00:41:52;98995.00;;;4.50;100.00
80927;BME280;70385;44.538;18.532;2023-11-21T00:44:18;98996.84;;;4.45;100.00
80927;BME280;70385;44.538;18.532;2023-11-21T00:46:46;98983.44;;;4.29;100.00
80927;BME280;70385;44.538;18.532;2023-11-21T00:49:23;98981.91;;;4.20;100.00
80927;BME280;70385;44.538;18.532;2023-11-21T00:51:56;98982.78;;;4.21;100.00
80927;BME280;70385;44.538;18.532;2023-11-21T00:54:27;98976.13;;;4.11;100.00
80927;BME280;70385;44.538;18.532;2023-11-21T00:57:02;98972.03;;;4.02;100.00
80927;BME280;70385;44.538;18.532;2023-11-21T00:59:30;98968.66;;;3.99;100.00
80927;BME280;70385;44.538;18.532;2023-11-21T01:02:05;98975.53;;;4.00;100.00
80927;BME280;70385;44.538;18.532;2023-11-21T01:04:37;98977.34;;;3.96;100.00
80927;BME280;70385;44.538;18.532;2023-11-21T01:07:07;98974.00;;;3.92;100.00
80927;BME280;70385;44.538;18.532;2023-11-21T01:09:38;98973.16;;;3.92;100.00
80927;BME280;70385;44.538;18.532;2023-11-21T01:12:06;98956.16;;;3.80;100.00
80927;BME280;70385;44.538;18.532;2023-11-21T01:14:36;98959.47;;;3.85;100.00
80927;BME280;70385;44.538;18.532;2023-11-21T01:17:04;98962.94;;;3.84;100.00
80927;BME280;70385;44.538;18.532;2023-11-21T01:19:35;98958.63;;;3.85;100.00
80927;BME280;70385;44.538;18.532;2023-11-21T01:22:05;98947.44;;;3.84;100.00
80927;BME280;70385;44.538;18.532;2023-11-21T01:24:33;98946.63;;;3.82;100.00
80927;BME280;70385;44.538;18.532;2023-11-21T01:27:02;98941.31;;;3.88;100.00
80927;BME280;70385;44.538;18.532;2023-11-21T01:29:37;98945.69;;;3.86;100.00
80927;BME280;70385;44.538;18.532;2023-11-21T01:32:06;98943.91;;;3.88;100.00
80927;BME280;70385;44.538;18.532;2023-11-21T01:34:40;98946.44;;;3.90;100.00
80927;BME280;70385;44.538;18.532;2023-11-21T01:37:09;98936.03;;;3.93;100.00
80927;BME280;70385;44.538;18.532;2023-11-21T01:39:40;98938.66;;;3.91;100.00
80927;BME280;70385;44.538;18.532;2023-11-21T01:42:14;98934.19;;;3.96;100.00
80927;BME280;70385;44.538;18.532;2023-11-21T01:44:40;98935.91;;;3.97;100.00
80927;BME280;70385;44.538;18.532;2023-11-21T01:47:07;98929.88;;;3.97;100.00
80927;BME280;70385;44.538;18.532;2023-11-21T01:49:37;98930.72;;;3.97;100.00
80927;BME280;70385;44.538;18.532;2023-11-21T01:52:06;98911.78;;;3.95;100.00
80927;BME280;70385;44.538;18.532;2023-11-21T01:54:35;98921.19;;;4.00;100.00
80927;BME280;70385;44.538;18.532;2023-11-21T01:57:06;98910.00;;;3.97;100.00
80927;BME280;70385;44.538;18.532;2023-11-21T01:59:37;98910.97;;;3.93;100.00
80927;BME280;70385;44.538;18.532;2023-11-21T02:02:06;98903.94;;;3.99;100.00
80927;BME280;70385;44.538;18.532;2023-11-21T02:04:34;98894.56;;;3.94;100.00
80927;BME280;70385;44.538;18.532;2023-11-21T02:07:05;98889.50;;;3.90;100.00
80927;BME280;70385;44.538;18.532;2023-11-21T02:09:32;98902.25;;;3.97;100.00
80927;BME280;70385;44.538;18.532;2023-11-21T02:12:03;98890.19;;;3.96;100.00
80927;BME280;70385;44.538;18.532;2023-11-21T02:14:31;98894.31;;;4.04;100.00
80927;BME280;70385;44.538;18.532;2023-11-21T02:16:57;98889.19;;;4.02;100.00
80927;BME280;70385;44.538;18.532;2023-11-21T02:19:31;98864.81;;;4.11;100.00
80927;BME280;70385;44.538;18.532;2023-11-21T02:22:03;98869.00;;;4.15;100.00
80927;BME280;70385;44.538;18.532;2023-11-21T02:24:32;98868.91;;;4.18;100.00
80927;BME280;70385;44.538;18.532;2023-11-21T02:27:02;98873.16;;;4.20;100.00
80927;BME280;70385;44.538;18.532;2023-11-21T02:29:29;98875.00;;;4.17;100.00
80927;BME280;70385;44.538;18.532;2023-11-21T02:31:56;98870.78;;;4.13;100.00
80927;BME280;70385;44.538;18.532;2023-11-21T02:34:25;98861.47;;;4.07;100.00
80927;BME280;70385;44.538;18.532;2023-11-21T02:36:54;98864.81;;;4.11;100.00
80927;BME280;70385;44.538;18.532;2023-11-21T02:39:21;98854.44;;;4.11;100.00
80927;BME280;70385;44.538;18.532;2023-11-21T02:41:51;98858.78;;;4.10;100.00
80927;BME280;70385;44.538;18.532;2023-11-21T02:44:21;98848.28;;;4.15;100.00
80927;BME280;70385;44.538;18.532;2023-11-21T02:46:50;98850.00;;;4.16;100.00
80927;BME280;70385;44.538;18.532;2023-11-21T02:49:15;98837.94;;;4.15;100.00
80927;BME280;70385;44.538;18.532;2023-11-21T02:51:43;98843.91;;;4.17;100.00
80927;BME280;70385;44.538;18.532;2023-11-21T02:54:11;98845.44;;;4.24;100.00
80927;BME280;70385;44.538;18.532;2023-11-21T02:56:41;98854.84;;;4.28;100.00
80927;BME280;70385;44.538;18.532;2023-11-21T02:59:07;98854.00;;;4.28;100.00
80927;BME280;70385;44.538;18.532;2023-11-21T03:01:42;98860.50;;;4.41;100.00
80927;BME280;70385;44.538;18.532;2023-11-21T03:04:09;98859.66;;;4.40;100.00
80927;BME280;70385;44.538;18.532;2023-11-21T03:06:35;98859.66;;;4.40;100.00
80927;BME280;70385;44.538;18.532;2023-11-21T03:09:01;98848.38;;;4.43;100.00
80927;BME280;70385;44.538;18.532;2023-11-21T03:11:27;98848.38;;;4.43;100.00
80927;BME280;70385;44.538;18.532;2023-11-21T03:13:57;98840.59;;;4.44;100.00
80927;BME280;70385;44.538;18.532;2023-11-21T03:16:26;98837.94;;;4.46;100.00
80927;BME280;70385;44.538;18.532;2023-11-21T03:19:03;98836.91;;;4.51;100.00
80927;BME280;70385;44.538;18.532;2023-11-21T03:21:30;98834.28;;;4.53;100.00
80927;BME280;70385;44.538;18.532;2023-11-21T03:23:59;98832.41;;;4.58;100.00
80927;BME280;70385;44.538;18.532;2023-11-21T03:26:27;98822.88;;;4.58;100.00
80927;BME280;70385;44.538;18.532;2023-11-21T03:28:53;98827.97;;;4.62;100.00
80927;BME280;70385;44.538;18.532;2023-11-21T03:31:20;98821.09;;;4.61;100.00
80927;BME280;70385;44.538;18.532;2023-11-21T03:33:49;98816.75;;;4.61;100.00
80927;BME280;70385;44.538;18.532;2023-11-21T03:36:19;98815.69;;;4.68;100.00
80927;BME280;70385;44.538;18.532;2023-11-21T03:38:48;98819.03;;;4.72;100.00
80927;BME280;70385;44.538;18.532;2023-11-21T03:41:18;98818.91;;;4.76;100.00
80927;BME280;70385;44.538;18.532;2023-11-21T03:43:47;98805.47;;;4.64;100.00
80927;BME280;70385;44.538;18.532;2023-11-21T03:46:14;98812.34;;;4.65;100.00
80927;BME280;70385;44.538;18.532;2023-11-21T03:48:45;98810.63;;;4.65;100.00
80927;BME280;70385;44.538;18.532;2023-11-21T03:51:11;98802.88;;;4.64;100.00
80927;BME280;70385;44.538;18.532;2023-11-21T03:53:39;98813.16;;;4.67;100.00
80927;BME280;70385;44.538;18.532;2023-11-21T03:56:08;98803.69;;;4.66;100.00
80927;BME280;70385;44.538;18.532;2023-11-21T03:58:37;98808.19;;;4.59;100.00
80927;BME280;70385;44.538;18.532;2023-11-21T04:01:06;98812.56;;;4.57;100.00
80927;BME280;70385;44.538;18.532;2023-11-21T04:03:32;98805.63;;;4.57;100.00
80927;BME280;70385;44.538;18.532;2023-11-21T04:05:58;98804.00;;;4.55;100.00
80927;BME280;70385;44.538;18.532;2023-11-21T04:08:27;98810.13;;;4.52;100.00
80927;BME280;70385;44.538;18.532;2023-11-21T04:10:58;98802.44;;;4.49;100.00
80927;BME280;70385;44.538;18.532;2023-11-21T04:13:26;98802.53;;;4.46;100.00
80927;BME280;70385;44.538;18.532;2023-11-21T04:15:52;98793.72;;;4.52;100.00
80927;BME280;70385;44.538;18.532;2023-11-21T04:18:18;98793.78;;;4.50;100.00
80927;BME280;70385;44.538;18.532;2023-11-21T04:20:45;98790.28;;;4.51;100.00
80927;BME280;70385;44.538;18.532;2023-11-21T04:23:22;98788.50;;;4.53;100.00
80927;BME280;70385;44.538;18.532;2023-11-21T04:25:50;98783.31;;;4.53;100.00
80927;BME280;70385;44.538;18.532;2023-11-21T04:28:17;98780.66;;;4.55;100.00
80927;BME280;70385;44.538;18.532;2023-11-21T04:30:46;98776.44;;;4.52;100.00
80927;BME280;70385;44.538;18.532;2023-11-21T04:33:12;98770.34;;;4.53;100.00
80927;BME280;70385;44.538;18.532;2023-11-21T04:35:38;98772.09;;;4.53;100.00
80927;BME280;70385;44.538;18.532;2023-11-21T04:38:04;98773.78;;;4.54;100.00
80927;BME280;70385;44.538;18.532;2023-11-21T04:40:33;98760.69;;;4.58;100.00
80927;BME280;70385;44.538;18.532;2023-11-21T04:43:02;98757.09;;;4.63;100.00
80927;BME280;70385;44.538;18.532;2023-11-21T04:45:37;98766.47;;;4.68;100.00
80927;BME280;70385;44.538;18.532;2023-11-21T04:48:05;98757.22;;;4.60;100.00
80927;BME280;70385;44.538;18.532;2023-11-21T04:50:32;98760.59;;;4.62;100.00
80927;BME280;70385;44.538;18.532;2023-11-21T04:53:02;98762.50;;;4.56;100.00
80927;BME280;70385;44.538;18.532;2023-11-21T04:55:28;98753.06;;;4.54;100.00
80927;BME280;70385;44.538;18.532;2023-11-21T04:57:56;98758.25;;;4.54;100.00
80927;BME280;70385;44.538;18.532;2023-11-21T05:00:22;98761.94;;;4.47;100.00
80927;BME280;70385;44.538;18.532;2023-11-21T05:02:56;98767.97;;;4.47;100.00
80927;BME280;70385;44.538;18.532;2023-11-21T05:05:22;98758.59;;;4.42;100.00
80927;BME280;70385;44.538;18.532;2023-11-21T05:07:51;98772.25;;;4.48;100.00
80927;BME280;70385;44.538;18.532;2023-11-21T05:10:21;98770.84;;;4.37;100.00
80927;BME280;70385;44.538;18.532;2023-11-21T05:12:49;98786.44;;;4.35;100.00
80927;BME280;70385;44.538;18.532;2023-11-21T05:15:16;98786.44;;;4.35;100.00
80927;BME280;70385;44.538;18.532;2023-11-21T05:17:45;98780.19;;;4.42;100.00
80927;BME280;70385;44.538;18.532;2023-11-21T05:20:16;98781.72;;;4.49;100.00
80927;BME280;70385;44.538;18.532;2023-11-21T05:22:52;98783.50;;;4.47;100.00
80927;BME280;70385;44.538;18.532;2023-11-21T05:25:19;98776.63;;;4.46;100.00
80927;BME280;70385;44.538;18.532;2023-11-21T05:27:51;98780.75;;;4.52;100.00
80927;BME280;70385;44.538;18.532;2023-11-21T05:30:17;98780.63;;;4.56;100.00
80927;BME280;70385;44.538;18.532;2023-11-21T05:32:51;98777.69;;;4.69;100.00
80927;BME280;70385;44.538;18.532;2023-11-21T05:35:20;98777.00;;;4.62;100.00
80927;BME280;70385;44.538;18.532;2023-11-21T05:37:47;98779.50;;;4.65;100.00
80927;BME280;70385;44.538;18.532;2023-11-21T05:40:13;98783.03;;;4.63;100.00
80927;BME280;70385;44.538;18.532;2023-11-21T05:42:42;98779.56;;;4.64;100.00
80927;BME280;70385;44.538;18.532;2023-11-21T05:45:10;98783.66;;;4.71;100.00
80927;BME280;70385;44.538;18.532;2023-11-21T05:47:49;98775.97;;;4.68;100.00
80927;BME280;70385;44.538;18.532;2023-11-21T05:50:19;98772.28;;;4.75;100.00
80927;BME280;70385;44.538;18.532;2023-11-21T05:52:47;98776.59;;;4.76;100.00
80927;BME280;70385;44.538;18.532;2023-11-21T05:55:13;98778.38;;;4.74;100.00
80927;BME280;70385;44.538;18.532;2023-11-21T05:57:43;98776.63;;;4.74;100.00
80927;BME280;70385;44.538;18.532;2023-11-21T06:00:13;98775.72;;;4.75;100.00
80927;BME280;70385;44.538;18.532;2023-11-21T06:02:50;98782.41;;;4.84;100.00
80927;BME280;70385;44.538;18.532;2023-11-21T06:05:22;98779.72;;;4.87;100.00
80927;BME280;70385;44.538;18.532;2023-11-21T06:07:56;98771.97;;;4.85;100.00
80927;BME280;70385;44.538;18.532;2023-11-21T06:10:50;98778.81;;;4.88;100.00
80927;BME280;70385;44.538;18.532;2023-11-21T06:13:30;98796.06;;;4.89;100.00
80927;BME280;70385;44.538;18.532;2023-11-21T06:16:04;98796.16;;;4.86;100.00
80927;BME280;70385;44.538;18.532;2023-11-21T06:18:43;98788.38;;;4.86;100.00
80927;BME280;70385;44.538;18.532;2023-11-21T06:21:09;98796.84;;;4.91;100.00
80927;BME280;70385;44.538;18.532;2023-11-21T06:23:42;98793.56;;;4.86;100.00
80927;BME280;70385;44.538;18.532;2023-11-21T06:26:25;98785.69;;;4.89;100.00
80927;BME280;70385;44.538;18.532;2023-11-21T06:28:59;98790.78;;;4.92;100.00
80927;BME280;70385;44.538;18.532;2023-11-21T06:31:26;98778.81;;;4.88;100.00
80927;BME280;70385;44.538;18.532;2023-11-21T06:34:00;98790.78;;;4.92;100.00
80927;BME280;70385;44.538;18.532;2023-11-21T06:36:31;98791.41;;;4.99;100.00
80927;BME280;70385;44.538;18.532;2023-11-21T06:39:02;98790.47;;;5.01;100.00
80927;BME280;70385;44.538;18.532;2023-11-21T06:41:36;98776.66;;;5.01;100.00
80927;BME280;70385;44.538;18.532;2023-11-21T06:44:04;98778.34;;;5.03;100.00
80927;BME280;70385;44.538;18.532;2023-11-21T06:46:34;98781.53;;;5.11;100.00
80927;BME280;70385;44.538;18.532;2023-11-21T06:49:00;98791.69;;;5.17;100.00
80927;BME280;70385;44.538;18.532;2023-11-21T06:51:27;98792.38;;;5.24;100.00
80927;BME280;70385;44.538;18.532;2023-11-21T06:54:14;98796.59;;;5.27;100.00
80927;BME280;70385;44.538;18.532;2023-11-21T06:56:43;98782.41;;;5.37;100.00
80927;BME280;70385;44.538;18.532;2023-11-21T06:59:14;98765.94;;;5.38;100.00
80927;BME280;70385;44.538;18.532;2023-11-21T07:01:46;98783.66;;;5.52;100.00
80927;BME280;70385;44.538;18.532;2023-11-21T07:04:15;98778.22;;;5.59;100.00
80927;BME280;70385;44.538;18.532;2023-11-21T07:06:42;98781.56;;;5.63;100.00
80927;BME280;70385;44.538;18.532;2023-11-21T07:09:12;98779.81;;;5.63;100.00
80927;BME280;70385;44.538;18.532;2023-11-21T07:11:41;98786.38;;;5.73;100.00
80927;BME280;70385;44.538;18.532;2023-11-21T07:14:08;98787.88;;;5.81;100.00
80927;BME280;70385;44.538;18.532;2023-11-21T07:16:35;98786.88;;;5.85;100.00
80927;BME280;70385;44.538;18.532;2023-11-21T07:19:08;98792.78;;;5.88;100.00
80927;BME280;70385;44.538;18.532;2023-11-21T07:21:38;98784.94;;;5.91;100.00
80927;BME280;70385;44.538;18.532;2023-11-21T07:24:08;98776.16;;;5.94;100.00
80927;BME280;70385;44.538;18.532;2023-11-21T07:26:36;98779.06;;;6.09;100.00
80927;BME280;70385;44.538;18.532;2023-11-21T07:29:04;98774.72;;;6.10;100.00
80927;BME280;70385;44.538;18.532;2023-11-21T07:31:32;98763.59;;;6.06;100.00
80927;BME280;70385;44.538;18.532;2023-11-21T07:34:08;98768.19;;;6.23;100.00
80927;BME280;70385;44.538;18.532;2023-11-21T07:36:36;98753.94;;;6.33;100.00
80927;BME280;70385;44.538;18.532;2023-11-21T07:39:03;98759.72;;;6.42;100.00
80927;BME280;70385;44.538;18.532;2023-11-21T07:41:34;98752.34;;;6.53;100.00
80927;BME280;70385;44.538;18.532;2023-11-21T07:44:10;98755.13;;;6.48;100.00
80927;BME280;70385;44.538;18.532;2023-11-21T07:47:01;98742.88;;;6.52;100.00
80927;BME280;70385;44.538;18.532;2023-11-21T07:49:35;98747.72;;;6.61;100.00
80927;BME280;70385;44.538;18.532;2023-11-21T07:52:05;98754.56;;;6.63;100.00
80927;BME280;70385;44.538;18.532;2023-11-21T07:54:35;98748.50;;;6.63;100.00
80927;BME280;70385;44.538;18.532;2023-11-21T07:57:05;98743.19;;;6.66;100.00
80927;BME280;70385;44.538;18.532;2023-11-21T07:59:34;98742.66;;;6.58;100.00
80927;BME280;70385;44.538;18.532;2023-11-21T08:02:10;98742.47;;;6.62;100.00
80927;BME280;70385;44.538;18.532;2023-11-21T08:04:51;98749.75;;;6.53;100.00
80927;BME280;70385;44.538;18.532;2023-11-21T08:07:20;98765.59;;;6.47;100.00
80927;BME280;70385;44.538;18.532;2023-11-21T08:09:50;98762.19;;;6.45;100.00
80927;BME280;70385;44.538;18.532;2023-11-21T08:12:18;98764.00;;;6.43;100.00
80927;BME280;70385;44.538;18.532;2023-11-21T08:14:47;98758.78;;;6.21;100.00
80927;BME280;70385;44.538;18.532;2023-11-21T08:17:13;98764.69;;;6.24;100.00
80927;BME280;70385;44.538;18.532;2023-11-21T08:19:46;98766.56;;;6.21;100.00
80927;BME280;70385;44.538;18.532;2023-11-21T08:22:18;98776.22;;;6.17;100.00
80927;BME280;70385;44.538;18.532;2023-11-21T08:24:46;98772.03;;;6.13;100.00
80927;BME280;70385;44.538;18.532;2023-11-21T08:27:16;98766.38;;;6.02;100.00
80927;BME280;70385;44.538;18.532;2023-11-21T08:29:43;98759.50;;;6.01;100.00
80927;BME280;70385;44.538;18.532;2023-11-21T08:32:14;98759.50;;;6.01;100.00
80927;BME280;70385;44.538;18.532;2023-11-21T08:34:40;98764.56;;;6.04;100.00
80927;BME280;70385;44.538;18.532;2023-11-21T08:37:10;98767.84;;;6.09;100.00
80927;BME280;70385;44.538;18.532;2023-11-21T08:39:37;98763.56;;;6.08;100.00
80927;BME280;70385;44.538;18.532;2023-11-21T08:42:07;98779.81;;;6.13;100.00
80927;BME280;70385;44.538;18.532;2023-11-21T08:44:48;98764.09;;;6.16;100.00
80927;BME280;70385;44.538;18.532;2023-11-21T08:47:46;98765.66;;;6.22;100.00
80927;BME280;70385;44.538;18.532;2023-11-21T08:50:15;98772.31;;;6.29;100.00
80927;BME280;70385;44.538;18.532;2023-11-21T08:52:51;98770.56;;;6.29;100.00
80927;BME280;70385;44.538;18.532;2023-11-21T08:55:22;98776.72;;;6.27;100.00
80927;BME280;70385;44.538;18.532;2023-11-21T08:57:58;98772.25;;;6.30;100.00
80927;BME280;70385;44.538;18.532;2023-11-21T09:00:29;98773.22;;;6.28;100.00
80927;BME280;70385;44.538;18.532;2023-11-21T09:02:58;98772.31;;;6.29;100.00
80927;BME280;70385;44.538;18.532;2023-11-21T09:05:31;98768.75;;;6.31;100.00
80927;BME280;70385;44.538;18.532;2023-11-21T09:07:57;98753.16;;;6.31;100.00
80927;BME280;70385;44.538;18.532;2023-11-21T09:10:26;98749.53;;;6.35;100.00
80927;BME280;70385;44.538;18.532;2023-11-21T09:12:57;98759.09;;;6.35;100.00
80927;BME280;70385;44.538;18.532;2023-11-21T09:20:04;98766.31;;;6.50;100.00
80927;BME280;70385;44.538;18.532;2023-11-21T09:22:50;98762.16;;;6.46;100.00
80927;BME280;70385;44.538;18.532;2023-11-21T09:25:16;98751.16;;;6.39;100.00
80927;BME280;70385;44.538;18.532;2023-11-21T09:27:51;98756.59;;;6.55;100.00
80927;BME280;70385;44.538;18.532;2023-11-21T09:30:18;98751.28;;;6.58;100.00
80927;BME280;70385;44.538;18.532;2023-11-21T09:32:47;98748.84;;;6.54;100.00
80927;BME280;70385;44.538;18.532;2023-11-21T09:35:14;98733.16;;;6.57;100.00
80927;BME280;70385;44.538;18.532;2023-11-21T09:37:40;98716.09;;;6.50;100.00
80927;BME280;70385;44.538;18.532;2023-11-21T09:40:12;98715.13;;;6.52;100.00
80927;BME280;70385;44.538;18.532;2023-11-21T09:42:43;98707.03;;;6.60;100.00
80927;BME280;70385;44.538;18.532;2023-11-21T09:48:57;98727.47;;;6.69;100.00
80927;BME280;70385;44.538;18.532;2023-11-21T09:51:31;98717.06;;;6.69;100.00
80927;BME280;70385;44.538;18.532;2023-11-21T09:54:04;98716.88;;;6.74;100.00
80927;BME280;70385;44.538;18.532;2023-11-21T09:56:43;98715.97;;;6.75;100.00
80927;BME280;70385;44.538;18.532;2023-11-21T09:59:45;98707.22;;;6.77;100.00
80927;BME280;70385;44.538;18.532;2023-11-21T10:02:17;98690.84;;;6.75;100.00
80927;BME280;70385;44.538;18.532;2023-11-21T10:04:49;98677.59;;;6.81;100.00
80927;BME280;70385;44.538;18.532;2023-11-21T10:07:27;98668.56;;;6.90;100.00
80927;BME280;70385;44.538;18.532;2023-11-21T10:13:30;98665.88;;;6.91;100.00
80927;BME280;70385;44.538;18.532;2023-11-21T10:16:01;98671.72;;;6.98;100.00
80927;BME280;70385;44.538;18.532;2023-11-21T10:18:38;98684.03;;;6.93;100.00
80927;BME280;70385;44.538;18.532;2023-11-21T10:21:07;98668.09;;;6.80;100.00
80927;BME280;70385;44.538;18.532;2023-11-21T10:23:41;98667.31;;;6.78;100.00
80927;BME280;70385;44.538;18.532;2023-11-21T10:26:11;98685.53;;;6.78;100.00
80927;BME280;70385;44.538;18.532;2023-11-21T10:29:01;98680.44;;;6.75;100.00
80927;BME280;70385;44.538;18.532;2023-11-21T10:31:36;98677.28;;;6.67;100.00
80927;BME280;70385;44.538;18.532;2023-11-21T10:34:55;98677.47;;;6.62;100.00
80927;BME280;70385;44.538;18.532;2023-11-21T10:37:37;98679.22;;;6.62;100.00
80927;BME280;70385;44.538;18.532;2023-11-21T10:40:12;98687.56;;;6.70;100.00
80927;BME280;70385;44.538;18.532;2023-11-21T10:42:40;98684.25;;;6.66;100.00
80927;BME280;70385;44.538;18.532;2023-11-21T10:45:20;98695.38;;;6.70;100.00
80927;BME280;70385;44.538;18.532;2023-11-21T10:47:53;98698.69;;;6.74;100.00
80927;BME280;70385;44.538;18.532;2023-11-21T10:50:24;98694.56;;;6.68;100.00
80927;BME280;70385;44.538;18.532;2023-11-21T10:52:52;98696.41;;;6.66;100.00
80927;BME280;70385;44.538;18.532;2023-11-21T10:55:23;98696.41;;;6.66;100.00
80927;BME280;70385;44.538;18.532;2023-11-21T10:57:54;98699.78;;;6.68;100.00
80927;BME280;70385;44.538;18.532;2023-11-21T11:00:27;98706.72;;;6.67;100.00
80927;BME280;70385;44.538;18.532;2023-11-21T11:02:59;98697.38;;;6.63;100.00
80927;BME280;70385;44.538;18.532;2023-11-21T11:05:36;98703.47;;;6.62;100.00
80927;BME280;70385;44.538;18.532;2023-11-21T11:08:17;98703.41;;;6.64;100.00
80927;BME280;70385;44.538;18.532;2023-11-21T11:10:51;98700.75;;;6.65;100.00
80927;BME280;70385;44.538;18.532;2023-11-21T11:13:18;98693.13;;;6.61;100.00
80927;BME280;70385;44.538;18.532;2023-11-21T11:15:50;98698.34;;;6.61;100.00
80927;BME280;70385;44.538;18.532;2023-11-21T11:18:16;98710.31;;;6.65;100.00
80927;BME280;70385;44.538;18.532;2023-11-21T11:20:52;98692.03;;;6.66;100.00
80927;BME280;70385;44.538;18.532;2023-11-21T11:26:21;98703.16;;;6.70;100.00
80927;BME280;70385;44.538;18.532;2023-11-21T11:32:16;98699.84;;;6.66;100.00
80927;BME280;70385;44.538;18.532;2023-11-21T11:34:57;98701.72;;;6.63;100.00
80927;BME280;70385;44.538;18.532;2023-11-21T11:37:31;98696.41;;;6.66;100.00
80927;BME280;70385;44.538;18.532;2023-11-21T11:39:59;98695.63;;;6.64;100.00
80927;BME280;70385;44.538;18.532;2023-11-21T11:42:27;98700.16;;;6.59;100.00
80927;BME280;70385;44.538;18.532;2023-11-21T11:44:56;98710.31;;;6.65;100.00
80927;BME280;70385;44.538;18.532;2023-11-21T11:47:28;98706.06;;;6.62;100.00
80927;BME280;70385;44.538;18.532;2023-11-21T11:50:12;98702.56;;;6.63;100.00
80927;BME280;70385;44.538;18.532;2023-11-21T11:56:29;98710.31;;;6.65;100.00
80927;BME280;70385;44.538;18.532;2023-11-21T11:59:06;98718.75;;;6.70;100.00
80927;BME280;70385;44.538;18.532;2023-11-21T12:01:44;98717.84;;;6.71;100.00
80927;BME280;70385;44.538;18.532;2023-11-21T12:07:00;98723.00;;;6.73;100.00
80927;BME280;70385;44.538;18.532;2023-11-21T12:09:41;98725.66;;;6.71;100.00
80927;BME280;70385;44.538;18.532;2023-11-21T12:12:13;98725.91;;;6.87;100.00
80927;BME280;70385;44.538;18.532;2023-11-21T12:14:40;98727.13;;;6.78;100.00
80927;BME280;70385;44.538;18.532;2023-11-21T12:17:07;98731.69;;;6.72;100.00
80927;BME280;70385;44.538;18.532;2023-11-21T12:19:35;98727.59;;;6.66;100.00
80927;BME280;70385;44.538;18.532;2023-11-21T12:22:19;98726.63;;;6.68;100.00
80927;BME280;70385;44.538;18.532;2023-11-21T12:24:51;98731.69;;;6.72;100.00
80927;BME280;70385;44.538;18.532;2023-11-21T12:27:17;98730.84;;;6.71;100.00
80927;BME280;70385;44.538;18.532;2023-11-21T12:29:45;98728.09;;;6.76;100.00
80927;BME280;70385;44.538;18.532;2023-11-21T12:32:11;98727.59;;;6.66;100.00
80927;BME280;70385;44.538;18.532;2023-11-21T12:34:43;98720.69;;;6.65;100.00
80927;BME280;70385;44.538;18.532;2023-11-21T12:37:10;98722.41;;;6.66;100.00
80927;BME280;70385;44.538;18.532;2023-11-21T12:39:46;98722.41;;;6.66;100.00
80927;BME280;70385;44.538;18.532;2023-11-21T12:42:20;98712.13;;;6.63;100.00
80927;BME280;70385;44.538;18.532;2023-11-21T12:44:47;98718.75;;;6.70;100.00
80927;BME280;70385;44.538;18.532;2023-11-21T12:47:22;98702.31;;;6.69;100.00
80927;BME280;70385;44.538;18.532;2023-11-21T12:50:00;98717.78;;;6.73;100.00
80927;BME280;70385;44.538;18.532;2023-11-21T12:52:32;98707.38;;;6.73;100.00
80927;BME280;70385;44.538;18.532;2023-11-21T12:55:02;98701.41;;;6.70;100.00
80927;BME280;70385;44.538;18.532;2023-11-21T12:57:36;98702.09;;;6.76;100.00
80927;BME280;70385;44.538;18.532;2023-11-21T13:00:17;98696.16;;;6.72;100.00
80927;BME280;70385;44.538;18.532;2023-11-21T13:03:01;98707.44;;;6.71;100.00
80927;BME280;70385;44.538;18.532;2023-11-21T13:05:36;98709.22;;;6.70;100.00
80927;BME280;70385;44.538;18.532;2023-11-21T13:08:13;98716.94;;;6.72;100.00
80927;BME280;70385;44.538;18.532;2023-11-21T13:10:46;98722.78;;;6.79;100.00
80927;BME280;70385;44.538;18.532;2023-11-21T13:13:18;98729.84;;;6.75;100.00
80927;BME280;70385;44.538;18.532;2023-11-21T13:15:53;98718.09;;;6.65;100.00
80927;BME280;70385;44.538;18.532;2023-11-21T13:18:25;98717.78;;;6.73;100.00
80927;BME280;70385;44.538;18.532;2023-11-21T13:20:56;98719.59;;;6.70;100.00
80927;BME280;70385;44.538;18.532;2023-11-21T13:23:26;98720.22;;;6.77;100.00
80927;BME280;70385;44.538;18.532;2023-11-21T13:25:59;98714.19;;;6.77;100.00
80927;BME280;70385;44.538;18.532;2023-11-21T13:28:48;98713.44;;;6.73;100.00
80927;BME280;70385;44.538;18.532;2023-11-21T13:31:37;98709.94;;;6.74;100.00
80927;BME280;70385;44.538;18.532;2023-11-21T13:34:21;98710.69;;;6.78;100.00
80927;BME280;70385;44.538;18.532;2023-11-21T13:36:54;98712.53;;;6.74;100.00